sensor_id;sensor_type;location;lat;lon;timestamp;noise_LAeq;noise_LA_min;noise_LA_max;noise_LA01;noise_LA95
66747;Laerm;53658;50.742;10.864;2023-03-23T00:01:23;40.22;36.91;52.51;;
66747;Laerm;53658;50.742;10.864;2023-03-23T00:03:53;40.14;36.45;49.86;;
66747;Laerm;53658;50.742;10.864;2023-03-23T00:06:25;39.96;37.12;48.63;;
66747;Laerm;53658;50.742;10.864;2023-03-23T00:08:52;40.02;36.91;45.97;;
66747;Laerm;53658;50.742;10.864;2023-03-23T00:11:30;41.95;36.69;59.81;;
66747;Laerm;53658;50.742;10.864;2023-03-23T00:13:58;40.34;36.91;52.36;;
66747;Laerm;53658;50.742;10.864;2023-03-23T00:16:29;39.69;36.98;43.42;;
66747;Laerm;53658;50.742;10.864;2023-03-23T00:19:04;39.89;36.91;45.80;;
66747;Laerm;53658;50.742;10.864;2023-03-23T00:21:33;39.78;36.56;45.94;;
66747;Laerm;53658;50.742;10.864;2023-03-23T00:24:02;40.32;36.56;53.86;;
66747;Laerm;53658;50.742;10.864;2023-03-23T00:26:28;40.21;36.91;50.40;;
66747;Laerm;53658;50.742;10.864;2023-03-23T00:28:55;39.70;36.69;44.76;;
66747;Laerm;53658;50.742;10.864;2023-03-23T00:31:22;40.28;36.45;51.13;;
66747;Laerm;53658;50.742;10.864;2023-03-23T00:33:47;40.29;36.91;50.90;;
66747;Laerm;53658;50.742;10.864;2023-03-23T00:36:14;39.56;35.94;42.65;;
66747;Laerm;53658;50.742;10.864;2023-03-23T00:38:40;40.48;36.69;51.81;;
66747;Laerm;53658;50.742;10.864;2023-03-23T00:41:07;39.66;36.45;43.58;;
66747;Laerm;53658;50.742;10.864;2023-03-23T00:43:33;39.85;36.69;50.85;;
66747;Laerm;53658;50.742;10.864;2023-03-23T00:46:03;39.88;36.91;46.07;;
66747;Laerm;53658;50.742;10.864;2023-03-23T00:48:34;40.76;37.32;59.65;;
66747;Laerm;53658;50.742;10.864;2023-03-23T00:51:02;39.77;36.45;46.50;;
66747;Laerm;53658;50.742;10.864;2023-03-23T00:53:35;39.87;36.91;47.63;;
66747;Laerm;53658;50.742;10.864;2023-03-23T00:56:01;39.80;36.91;43.49;;
66747;Laerm;53658;50.742;10.864;2023-03-23T00:58:28;40.14;36.91;50.53;;
66747;Laerm;53658;50.742;10.864;2023-03-23T01:00:53;39.98;36.45;45.98;;
66747;Laerm;53658;50.742;10.864;2023-03-23T01:03:20;40.08;36.91;47.40;;
66747;Laerm;53658;50.742;10.864;2023-03-23T01:05:46;40.03;36.20;53.11;;
66747;Laerm;53658;50.742;10.864;2023-03-23T01:08:18;39.91;37.52;42.35;;
66747;Laerm;53658;50.742;10.864;2023-03-23T01:10:45;39.96;37.12;43.44;;
66747;Laerm;53658;50.742;10.864;2023-03-23T01:13:12;40.03;37.53;47.83;;
66747;Laerm;53658;50.742;10.864;2023-03-23T01:15:39;39.98;37.32;43.77;;
66747;Laerm;53658;50.742;10.864;2023-03-23T01:18:05;40.42;37.52;51.37;;
66747;Laerm;53658;50.742;10.864;2023-03-23T01:20:32;39.95;37.52;41.75;;
66747;Laerm;53658;50.742;10.864;2023-03-23T01:22:58;39.96;37.52;42.22;;
66747;Laerm;53658;50.742;10.864;2023-03-23T01:25:31;39.99;37.32;41.89;;
66747;Laerm;53658;50.742;10.864;2023-03-23T01:27:58;40.05;37.70;42.76;;
66747;Laerm;53658;50.742;10.864;2023-03-23T01:30:25;40.00;37.52;42.41;;
66747;Laerm;53658;50.742;10.864;2023-03-23T01:32:51;40.10;37.88;46.05;;
66747;Laerm;53658;50.742;10.864;2023-03-23T01:35:18;40.09;37.88;45.17;;
66747;Laerm;53658;50.742;10.864;2023-03-23T01:37:45;40.42;37.52;49.62;;
66747;Laerm;53658;50.742;10.864;2023-03-23T01:40:11;40.33;37.12;52.31;;
66747;Laerm;53658;50.742;10.864;2023-03-23T01:42:38;40.25;37.87;46.15;;
66747;Laerm;53658;50.742;10.864;2023-03-23T01:45:29;40.36;37.88;52.59;;
66747;Laerm;53658;50.742;10.864;2023-03-23T01:48:07;40.26;37.88;48.12;;
66747;Laerm;53658;50.742;10.864;2023-03-23T01:50:50;40.30;37.32;49.06;;
66747;Laerm;53658;50.742;10.864;2023-03-23T01:53:19;40.08;37.70;44.27;;
66747;Laerm;53658;50.742;10.864;2023-03-23T01:55:49;40.37;37.52;48.58;;
66747;Laerm;53658;50.742;10.864;2023-03-23T01:58:21;40.39;37.87;52.99;;
66747;Laerm;53658;50.742;10.864;2023-03-23T02:00:53;40.51;37.70;57.15;;
66747;Laerm;53658;50.742;10.864;2023-03-23T02:03:22;40.04;37.70;42.35;;
66747;Laerm;53658;50.742;10.864;2023-03-23T02:05:51;40.18;37.88;45.46;;
66747;Laerm;53658;50.742;10.864;2023-03-23T02:08:31;40.06;37.70;43.94;;
66747;Laerm;53658;50.742;10.864;2023-03-23T02:11:01;40.13;37.87;44.11;;
66747;Laerm;53658;50.742;10.864;2023-03-23T02:13:28;40.17;38.05;47.77;;
66747;Laerm;53658;50.742;10.864;2023-03-23T02:19:03;40.08;38.05;42.53;;
66747;Laerm;53658;50.742;10.864;2023-03-23T02:24:48;40.08;37.70;42.47;;
66747;Laerm;53658;50.742;10.864;2023-03-23T02:41:22;40.02;37.70;41.96;;
66747;Laerm;53658;50.742;10.864;2023-03-23T02:43:51;40.01;37.70;41.89;;
66747;Laerm;53658;50.742;10.864;2023-03-23T02:46:21;40.02;37.88;41.53;;
66747;Laerm;53658;50.742;10.864;2023-03-23T02:48:50;40.01;37.88;41.75;;
66747;Laerm;53658;50.742;10.864;2023-03-23T02:51:20;40.00;38.05;41.88;;
66747;Laerm;53658;50.742;10.864;2023-03-23T02:53:50;40.03;38.05;41.82;;
66747;Laerm;53658;50.742;10.864;2023-03-23T02:56:18;40.03;38.05;41.75;;
66747;Laerm;53658;50.742;10.864;2023-03-23T02:58:46;40.07;37.52;42.47;;
66747;Laerm;53658;50.742;10.864;2023-03-23T03:03:57;40.08;37.52;43.29;;
66747;Laerm;53658;50.742;10.864;2023-03-23T03:06:34;40.12;37.88;43.24;;
66747;Laerm;53658;50.742;10.864;2023-03-23T03:09:30;40.05;37.88;41.89;;
66747;Laerm;53658;50.742;10.864;2023-03-23T03:12:15;40.04;37.70;41.68;;
66747;Laerm;53658;50.742;10.864;2023-03-23T03:15:17;40.06;37.35;43.68;;
66747;Laerm;53658;50.742;10.864;2023-03-23T03:17:46;40.05;37.70;43.09;;
66747;Laerm;53658;50.742;10.864;2023-03-23T03:20:16;40.04;37.88;41.68;;
66747;Laerm;53658;50.742;10.864;2023-03-23T03:22:45;40.04;38.05;41.75;;
66747;Laerm;53658;50.742;10.864;2023-03-23T03:25:15;40.03;37.88;41.61;;
66747;Laerm;53658;50.742;10.864;2023-03-23T03:27:44;40.03;37.12;41.75;;
66747;Laerm;53658;50.742;10.864;2023-03-23T03:30:22;40.01;38.05;41.61;;
66747;Laerm;53658;50.742;10.864;2023-03-23T03:32:53;39.99;37.70;41.68;;
66747;Laerm;53658;50.742;10.864;2023-03-23T03:35:23;39.92;37.88;41.82;;
66747;Laerm;53658;50.742;10.864;2023-03-23T03:37:50;39.92;37.88;41.89;;
66747;Laerm;53658;50.742;10.864;2023-03-23T03:40:20;40.04;37.70;43.24;;
66747;Laerm;53658;50.742;10.864;2023-03-23T03:42:46;40.02;37.88;41.61;;
66747;Laerm;53658;50.742;10.864;2023-03-23T03:45:16;40.03;38.05;42.03;;
66747;Laerm;53658;50.742;10.864;2023-03-23T03:47:43;39.99;37.88;41.68;;
66747;Laerm;53658;50.742;10.864;2023-03-23T03:50:10;39.95;37.70;41.68;;
66747;Laerm;53658;50.742;10.864;2023-03-23T03:52:37;39.95;37.70;41.61;;
66747;Laerm;53658;50.742;10.864;2023-03-23T03:55:06;39.97;37.88;41.89;;
66747;Laerm;53658;50.742;10.864;2023-03-23T03:57:33;40.01;37.88;41.75;;
66747;Laerm;53658;50.742;10.864;2023-03-23T04:00:06;40.00;37.70;41.68;;
66747;Laerm;53658;50.742;10.864;2023-03-23T04:02:45;39.93;37.88;41.75;;
66747;Laerm;53658;50.742;10.864;2023-03-23T04:05:20;39.96;37.70;41.55;;
66747;Laerm;53658;50.742;10.864;2023-03-23T04:07:49;39.97;38.02;41.53;;
66747;Laerm;53658;50.742;10.864;2023-03-23T04:10:19;40.01;37.70;41.61;;
66747;Laerm;53658;50.742;10.864;2023-03-23T04:12:49;39.95;37.88;41.53;;
66747;Laerm;53658;50.742;10.864;2023-03-23T04:15:34;39.97;38.05;41.53;;
66747;Laerm;53658;50.742;10.864;2023-03-23T04:18:00;39.97;37.88;41.61;;
66747;Laerm;53658;50.742;10.864;2023-03-23T04:20:27;39.87;37.35;41.68;;
66747;Laerm;53658;50.742;10.864;2023-03-23T04:22:53;39.88;37.88;41.53;;
66747;Laerm;53658;50.742;10.864;2023-03-23T04:25:22;39.92;37.88;41.68;;
66747;Laerm;53658;50.742;10.864;2023-03-23T04:27:51;39.81;37.53;41.53;;
66747;Laerm;53658;50.742;10.864;2023-03-23T04:30:28;39.91;37.52;41.68;;
66747;Laerm;53658;50.742;10.864;2023-03-23T04:33:10;39.32;36.20;41.46;;
66747;Laerm;53658;50.742;10.864;2023-03-23T04:35:41;39.15;36.45;41.14;;
66747;Laerm;53658;50.742;10.864;2023-03-23T04:38:28;39.78;37.32;41.75;;
66747;Laerm;53658;50.742;10.864;2023-03-23T04:41:00;39.86;37.88;41.53;;
66747;Laerm;53658;50.742;10.864;2023-03-23T04:44:03;39.42;36.69;41.22;;
66747;Laerm;53658;50.742;10.864;2023-03-23T04:46:36;39.22;36.45;42.88;;
66747;Laerm;53658;50.742;10.864;2023-03-23T04:49:07;39.19;35.94;41.61;;
66747;Laerm;53658;50.742;10.864;2023-03-23T04:51:36;39.56;36.91;42.59;;
66747;Laerm;53658;50.742;10.864;2023-03-23T04:54:31;39.65;37.12;42.76;;
66747;Laerm;53658;50.742;10.864;2023-03-23T04:57:00;39.86;36.69;44.54;;
66747;Laerm;53658;50.742;10.864;2023-03-23T04:59:26;39.90;36.91;43.29;;
66747;Laerm;53658;50.742;10.864;2023-03-23T05:02:11;40.47;37.32;47.83;;
66747;Laerm;53658;50.742;10.864;2023-03-23T05:04:40;40.80;37.52;43.72;;
66747;Laerm;53658;50.742;10.864;2023-03-23T05:07:12;40.42;37.52;49.82;;
66747;Laerm;53658;50.742;10.864;2023-03-23T05:09:47;40.22;37.32;43.51;;
66747;Laerm;53658;50.742;10.864;2023-03-23T05:12:15;40.10;37.52;45.57;;
66747;Laerm;53658;50.742;10.864;2023-03-23T05:14:50;40.08;37.32;42.06;;
66747;Laerm;53658;50.742;10.864;2023-03-23T05:17:19;40.26;37.32;54.87;;
66747;Laerm;53658;50.742;10.864;2023-03-23T05:19:50;40.10;37.12;49.16;;
66747;Laerm;53658;50.742;10.864;2023-03-23T05:22:42;40.39;37.12;52.20;;
66747;Laerm;53658;50.742;10.864;2023-03-23T05:25:14;40.21;37.52;52.13;;
66747;Laerm;53658;50.742;10.864;2023-03-23T05:27:46;40.00;37.32;42.65;;
66747;Laerm;53658;50.742;10.864;2023-03-23T05:30:50;39.97;37.12;45.69;;
66747;Laerm;53658;50.742;10.864;2023-03-23T05:33:18;39.76;37.12;43.24;;
66747;Laerm;53658;50.742;10.864;2023-03-23T05:36:12;39.88;37.12;49.79;;
66747;Laerm;53658;50.742;10.864;2023-03-23T05:38:57;40.18;37.12;55.50;;
66747;Laerm;53658;50.742;10.864;2023-03-23T05:41:31;40.02;37.32;50.68;;
66747;Laerm;53658;50.742;10.864;2023-03-23T05:43:57;40.29;37.52;50.36;;
66747;Laerm;53658;50.742;10.864;2023-03-23T05:46:29;40.38;37.12;47.79;;
66747;Laerm;53658;50.742;10.864;2023-03-23T05:48:58;40.46;37.32;49.23;;
66747;Laerm;53658;50.742;10.864;2023-03-23T05:51:31;40.45;37.52;44.35;;
66747;Laerm;53658;50.742;10.864;2023-03-23T05:53:57;40.10;37.32;49.41;;
66747;Laerm;53658;50.742;10.864;2023-03-23T05:56:23;40.24;37.52;45.89;;
66747;Laerm;53658;50.742;10.864;2023-03-23T05:59:09;40.31;36.69;45.66;;
66747;Laerm;53658;50.742;10.864;2023-03-23T06:01:37;40.43;37.32;49.92;;
66747;Laerm;53658;50.742;10.864;2023-03-23T06:04:04;42.45;37.12;66.30;;
66747;Laerm;53658;50.742;10.864;2023-03-23T06:06:40;50.60;37.70;65.43;;
66747;Laerm;53658;50.742;10.864;2023-03-23T06:09:09;40.85;37.12;44.43;;
66747;Laerm;53658;50.742;10.864;2023-03-23T06:11:46;40.39;37.12;57.26;;
66747;Laerm;53658;50.742;10.864;2023-03-23T06:14:36;40.18;37.12;47.72;;
66747;Laerm;53658;50.742;10.864;2023-03-23T06:17:03;40.07;36.69;51.50;;
66747;Laerm;53658;50.742;10.864;2023-03-23T06:19:29;39.87;36.91;55.73;;
66747;Laerm;53658;50.742;10.864;2023-03-23T06:22:15;40.05;36.45;52.24;;
66747;Laerm;53658;50.742;10.864;2023-03-23T06:24:49;41.26;36.45;71.41;;
66747;Laerm;53658;50.742;10.864;2023-03-23T06:27:21;48.51;36.69;82.49;;
66747;Laerm;53658;50.742;10.864;2023-03-23T06:29:47;40.13;36.20;46.82;;
66747;Laerm;53658;50.742;10.864;2023-03-23T06:32:14;39.93;36.45;43.14;;
66747;Laerm;53658;50.742;10.864;2023-03-23T06:34:42;39.64;35.04;43.09;;
66747;Laerm;53658;50.742;10.864;2023-03-23T06:37:29;39.68;36.45;49.35;;
66747;Laerm;53658;50.742;10.864;2023-03-23T06:40:08;39.73;35.94;44.45;;
66747;Laerm;53658;50.742;10.864;2023-03-23T06:42:40;39.77;36.45;50.34;;
66747;Laerm;53658;50.742;10.864;2023-03-23T06:45:26;40.00;36.20;44.90;;
66747;Laerm;53658;50.742;10.864;2023-03-23T06:48:06;40.63;36.45;61.23;;
66747;Laerm;53658;50.742;10.864;2023-03-23T06:50:33;43.91;35.04;63.62;;
66747;Laerm;53658;50.742;10.864;2023-03-23T06:52:59;44.68;34.69;62.84;;
66747;Laerm;53658;50.742;10.864;2023-03-23T06:55:25;41.90;37.12;54.12;;
66747;Laerm;53658;50.742;10.864;2023-03-23T06:57:53;41.67;36.20;53.16;;
66747;Laerm;53658;50.742;10.864;2023-03-23T07:00:18;41.67;36.69;51.28;;
66747;Laerm;53658;50.742;10.864;2023-03-23T07:02:44;50.81;36.91;86.43;;
66747;Laerm;53658;50.742;10.864;2023-03-23T07:05:12;42.15;37.88;70.79;;
66747;Laerm;53658;50.742;10.864;2023-03-23T07:07:39;43.04;36.91;75.52;;
66747;Laerm;53658;50.742;10.864;2023-03-23T07:10:18;40.99;36.69;50.91;;
66747;Laerm;53658;50.742;10.864;2023-03-23T07:12:45;40.78;36.77;47.38;;
66747;Laerm;53658;50.742;10.864;2023-03-23T07:15:12;40.69;36.20;47.55;;
66747;Laerm;53658;50.742;10.864;2023-03-23T07:17:41;40.55;35.36;45.99;;
66747;Laerm;53658;50.742;10.864;2023-03-23T07:20:22;42.66;36.20;74.88;;
66747;Laerm;53658;50.742;10.864;2023-03-23T07:22:48;40.27;35.66;47.84;;
66747;Laerm;53658;50.742;10.864;2023-03-23T07:25:23;40.39;35.36;49.73;;
66747;Laerm;53658;50.742;10.864;2023-03-23T07:27:52;40.72;35.66;49.18;;
66747;Laerm;53658;50.742;10.864;2023-03-23T07:30:18;40.56;36.69;47.40;;
66747;Laerm;53658;50.742;10.864;2023-03-23T07:32:44;40.54;36.45;48.52;;
66747;Laerm;53658;50.742;10.864;2023-03-23T07:35:10;40.38;35.94;46.86;;
66747;Laerm;53658;50.742;10.864;2023-03-23T07:37:57;40.08;35.66;47.10;;
66747;Laerm;53658;50.742;10.864;2023-03-23T07:40:24;40.09;35.66;47.22;;
66747;Laerm;53658;50.742;10.864;2023-03-23T07:42:56;40.27;35.94;44.35;;
66747;Laerm;53658;50.742;10.864;2023-03-23T07:45:39;40.38;36.69;44.76;;
66747;Laerm;53658;50.742;10.864;2023-03-23T07:48:05;40.46;35.31;46.71;;
66747;Laerm;53658;50.742;10.864;2023-03-23T07:50:31;40.28;35.04;49.11;;
66747;Laerm;53658;50.742;10.864;2023-03-23T07:52:59;40.30;35.94;48.02;;
66747;Laerm;53658;50.742;10.864;2023-03-23T07:55:29;40.34;36.45;48.49;;
66747;Laerm;53658;50.742;10.864;2023-03-23T07:58:05;40.12;35.94;45.89;;
66747;Laerm;53658;50.742;10.864;2023-03-23T08:00:31;40.27;36.20;46.18;;
66747;Laerm;53658;50.742;10.864;2023-03-23T08:03:00;40.38;36.20;50.37;;
66747;Laerm;53658;50.742;10.864;2023-03-23T08:05:42;40.32;36.69;48.64;;
66747;Laerm;53658;50.742;10.864;2023-03-23T08:08:34;40.10;36.20;48.91;;
66747;Laerm;53658;50.742;10.864;2023-03-23T08:11:20;40.01;35.66;46.43;;
66747;Laerm;53658;50.742;10.864;2023-03-23T08:13:46;39.70;35.66;45.94;;
66747;Laerm;53658;50.742;10.864;2023-03-23T08:16:19;39.57;35.66;46.33;;
66747;Laerm;53658;50.742;10.864;2023-03-23T08:19:23;39.45;34.31;50.50;;
66747;Laerm;53658;50.742;10.864;2023-03-23T08:22:11;39.95;34.69;50.61;;
66747;Laerm;53658;50.742;10.864;2023-03-23T08:25:02;40.10;36.91;49.65;;
66747;Laerm;53658;50.742;10.864;2023-03-23T08:27:59;39.57;36.45;43.77;;
66747;Laerm;53658;50.742;10.864;2023-03-23T08:30:53;39.32;36.69;41.53;;
66747;Laerm;53658;50.742;10.864;2023-03-23T08:33:32;39.29;36.69;41.30;;
66747;Laerm;53658;50.742;10.864;2023-03-23T08:36:19;39.30;36.69;41.38;;
66747;Laerm;53658;50.742;10.864;2023-03-23T08:38:54;39.36;36.91;41.14;;
66747;Laerm;53658;50.742;10.864;2023-03-23T08:41:49;39.39;37.12;43.94;;
66747;Laerm;53658;50.742;10.864;2023-03-23T08:44:21;39.32;36.69;41.06;;
66747;Laerm;53658;50.742;10.864;2023-03-23T08:47:08;39.30;35.94;41.14;;
66747;Laerm;53658;50.742;10.864;2023-03-23T08:49:52;39.49;36.77;44.87;;
66747;Laerm;53658;50.742;10.864;2023-03-23T08:52:57;39.49;37.17;46.35;;
66747;Laerm;53658;50.742;10.864;2023-03-23T08:55:42;39.33;36.91;41.53;;
66747;Laerm;53658;50.742;10.864;2023-03-23T08:58:20;39.55;36.69;46.64;;
66747;Laerm;53658;50.742;10.864;2023-03-23T09:01:07;39.91;36.45;51.74;;
66747;Laerm;53658;50.742;10.864;2023-03-23T09:03:55;39.69;36.91;42.53;;
66747;Laerm;53658;50.742;10.864;2023-03-23T09:06:40;40.12;36.91;51.35;;
66747;Laerm;53658;50.742;10.864;2023-03-23T09:09:06;39.42;36.91;42.24;;
66747;Laerm;53658;50.742;10.864;2023-03-23T09:11:34;39.76;37.32;48.87;;
66747;Laerm;53658;50.742;10.864;2023-03-23T09:14:01;39.87;37.12;44.54;;
66747;Laerm;53658;50.742;10.864;2023-03-23T09:16:27;39.74;36.77;42.93;;
66747;Laerm;53658;50.742;10.864;2023-03-23T09:18:54;39.88;37.12;45.75;;
66747;Laerm;53658;50.742;10.864;2023-03-23T09:21:26;39.97;36.91;50.36;;
66747;Laerm;53658;50.742;10.864;2023-03-23T09:23:53;40.00;36.91;46.89;;
66747;Laerm;53658;50.742;10.864;2023-03-23T09:26:26;39.92;36.69;51.51;;
66747;Laerm;53658;50.742;10.864;2023-03-23T09:28:53;40.72;36.91;57.23;;
66747;Laerm;53658;50.742;10.864;2023-03-23T09:31:19;39.63;36.91;49.84;;
66747;Laerm;53658;50.742;10.864;2023-03-23T09:33:49;39.68;36.69;47.79;;
66747;Laerm;53658;50.742;10.864;2023-03-23T09:36:18;39.40;36.91;41.14;;
66747;Laerm;53658;50.742;10.864;2023-03-23T09:38:47;39.57;37.12;44.94;;
66747;Laerm;53658;50.742;10.864;2023-03-23T09:44:21;39.40;36.91;41.06;;
66747;Laerm;53658;50.742;10.864;2023-03-23T09:49:59;39.41;36.91;41.38;;
66747;Laerm;53658;50.742;10.864;2023-03-23T09:53:02;39.47;36.91;41.14;;
66747;Laerm;53658;50.742;10.864;2023-03-23T09:55:31;39.95;37.32;52.31;;
66747;Laerm;53658;50.742;10.864;2023-03-23T09:58:25;39.55;37.12;43.04;;
66747;Laerm;53658;50.742;10.864;2023-03-23T10:03:42;39.46;36.69;41.38;;
66747;Laerm;53658;50.742;10.864;2023-03-23T10:06:15;39.50;37.12;41.53;;
66747;Laerm;53658;50.742;10.864;2023-03-23T10:08:55;39.81;37.32;48.64;;
66747;Laerm;53658;50.742;10.864;2023-03-23T10:11:33;39.68;36.98;49.67;;
66747;Laerm;53658;50.742;10.864;2023-03-23T10:17:00;39.69;37.32;42.29;;
66747;Laerm;53658;50.742;10.864;2023-03-23T10:22:26;39.64;37.17;42.09;;
66747;Laerm;53658;50.742;10.864;2023-03-23T10:25:15;39.74;37.52;41.38;;
66747;Laerm;53658;50.742;10.864;2023-03-23T10:30:39;39.80;37.32;43.39;;
66747;Laerm;53658;50.742;10.864;2023-03-23T10:38:50;39.97;37.70;41.89;;
66747;Laerm;53658;50.742;10.864;2023-03-23T10:41:20;40.04;37.70;46.62;;
66747;Laerm;53658;50.742;10.864;2023-03-23T10:43:46;40.12;38.18;43.44;;
66747;Laerm;53658;50.742;10.864;2023-03-23T10:49:13;40.29;38.05;41.89;;
66747;Laerm;53658;50.742;10.864;2023-03-23T10:51:46;43.41;38.32;60.75;;
66747;Laerm;53658;50.742;10.864;2023-03-23T10:54:26;40.36;37.88;46.13;;
66747;Laerm;53658;50.742;10.864;2023-03-23T10:56:53;40.38;38.37;46.23;;
66747;Laerm;53658;50.742;10.864;2023-03-23T10:59:26;40.89;38.05;51.97;;
66747;Laerm;53658;50.742;10.864;2023-03-23T11:01:55;40.24;38.05;43.09;;
66747;Laerm;53658;50.742;10.864;2023-03-23T11:04:23;40.39;38.37;45.07;;
66747;Laerm;53658;50.742;10.864;2023-03-23T11:06:53;40.27;38.05;42.98;;
66747;Laerm;53658;50.742;10.864;2023-03-23T11:09:21;40.25;37.88;42.16;;
66747;Laerm;53658;50.742;10.864;2023-03-23T11:11:58;40.30;38.05;42.16;;
66747;Laerm;53658;50.742;10.864;2023-03-23T11:14:27;40.50;37.88;52.38;;
66747;Laerm;53658;50.742;10.864;2023-03-23T11:16:56;40.34;38.37;42.69;;
66747;Laerm;53658;50.742;10.864;2023-03-23T11:19:26;40.77;37.52;51.34;;
66747;Laerm;53658;50.742;10.864;2023-03-23T11:21:59;40.55;37.88;45.04;;
66747;Laerm;53658;50.742;10.864;2023-03-23T11:24:26;40.35;38.21;43.04;;
66747;Laerm;53658;50.742;10.864;2023-03-23T11:26:56;40.73;38.05;50.89;;
66747;Laerm;53658;50.742;10.864;2023-03-23T11:29:28;40.38;38.05;44.65;;
66747;Laerm;53658;50.742;10.864;2023-03-23T11:34:32;40.36;38.05;45.01;;
66747;Laerm;53658;50.742;10.864;2023-03-23T11:37:20;40.29;38.02;42.09;;
66747;Laerm;53658;50.742;10.864;2023-03-23T11:40:00;40.30;38.05;42.16;;
66747;Laerm;53658;50.742;10.864;2023-03-23T11:42:45;40.36;38.37;48.21;;
66747;Laerm;53658;50.742;10.864;2023-03-23T11:53:37;39.88;37.12;49.92;;
66747;Laerm;53658;50.742;10.864;2023-03-23T11:56:26;39.94;37.52;45.83;;
66747;Laerm;53658;50.742;10.864;2023-03-23T11:58:56;39.97;37.32;43.34;;
66747;Laerm;53658;50.742;10.864;2023-03-23T12:07:00;39.87;36.91;47.20;;
66747;Laerm;53658;50.742;10.864;2023-03-23T12:12:38;39.73;36.91;45.63;;
66747;Laerm;53658;50.742;10.864;2023-03-23T12:30:04;39.37;37.12;42.76;;
66747;Laerm;53658;50.742;10.864;2023-03-23T12:32:58;39.50;36.91;45.42;;
66747;Laerm;53658;50.742;10.864;2023-03-23T12:40:59;39.48;36.91;43.29;;
66747;Laerm;53658;50.742;10.864;2023-03-23T12:46:34;39.49;36.91;42.41;;
66747;Laerm;53658;50.742;10.864;2023-03-23T13:04:41;40.08;37.70;41.61;;
66747;Laerm;53658;50.742;10.864;2023-03-23T13:07:16;40.59;38.21;52.11;;
66747;Laerm;53658;50.742;10.864;2023-03-23T13:12:11;40.03;37.12;43.04;;
66747;Laerm;53658;50.742;10.864;2023-03-23T13:14:54;39.95;37.88;42.09;;
66747;Laerm;53658;50.742;10.864;2023-03-23T13:26:36;39.90;37.52;41.46;;
66747;Laerm;53658;50.742;10.864;2023-03-23T13:34:18;39.71;37.70;42.42;;
66747;Laerm;53658;50.742;10.864;2023-03-23T13:37:21;39.71;37.32;42.88;;
66747;Laerm;53658;50.742;10.864;2023-03-23T13:49:57;39.52;37.32;41.53;;
66747;Laerm;53658;50.742;10.864;2023-03-23T13:57:52;39.46;36.20;41.38;;
66747;Laerm;53658;50.742;10.864;2023-03-23T14:00:37;39.47;37.32;41.30;;
66747;Laerm;53658;50.742;10.864;2023-03-23T14:03:18;39.54;36.91;42.88;;
66747;Laerm;53658;50.742;10.864;2023-03-23T14:08:38;39.42;37.12;41.38;;
66747;Laerm;53658;50.742;10.864;2023-03-23T14:11:14;39.60;37.12;42.76;;
66747;Laerm;53658;50.742;10.864;2023-03-23T14:16:43;39.51;36.91;41.46;;
66747;Laerm;53658;50.742;10.864;2023-03-23T14:19:25;39.61;36.91;43.19;;
66747;Laerm;53658;50.742;10.864;2023-03-23T14:21:59;39.56;37.32;41.46;;
66747;Laerm;53658;50.742;10.864;2023-03-23T14:24:31;39.57;37.32;41.22;;
66747;Laerm;53658;50.742;10.864;2023-03-23T14:27:16;39.54;37.52;41.30;;
66747;Laerm;53658;50.742;10.864;2023-03-23T14:29:43;39.52;37.12;42.16;;
66747;Laerm;53658;50.742;10.864;2023-03-23T14:32:19;39.51;37.12;41.46;;
66747;Laerm;53658;50.742;10.864;2023-03-23T14:34:52;39.50;36.98;41.38;;
66747;Laerm;53658;50.742;10.864;2023-03-23T14:37:18;39.48;37.12;41.38;;
66747;Laerm;53658;50.742;10.864;2023-03-23T14:39:53;39.48;37.32;41.38;;
66747;Laerm;53658;50.742;10.864;2023-03-23T14:42:32;39.51;37.12;41.38;;
66747;Laerm;53658;50.742;10.864;2023-03-23T14:45:01;39.59;37.12;44.54;;
66747;Laerm;53658;50.742;10.864;2023-03-23T14:47:37;39.45;37.12;41.22;;
66747;Laerm;53658;50.742;10.864;2023-03-23T14:50:07;39.46;37.52;41.68;;
66747;Laerm;53658;50.742;10.864;2023-03-23T14:52:47;39.45;36.91;41.06;;
66747;Laerm;53658;50.742;10.864;2023-03-23T14:55:20;39.51;37.12;42.16;;
66747;Laerm;53658;50.742;10.864;2023-03-23T14:57:48;39.52;37.32;41.14;;
66747;Laerm;53658;50.742;10.864;2023-03-23T15:00:23;39.50;36.91;41.22;;
66747;Laerm;53658;50.742;10.864;2023-03-23T15:02:56;39.50;37.12;41.22;;
66747;Laerm;53658;50.742;10.864;2023-03-23T15:05:34;39.56;37.52;42.03;;
66747;Laerm;53658;50.742;10.864;2023-03-23T15:08:26;39.55;36.69;41.68;;
66747;Laerm;53658;50.742;10.864;2023-03-23T15:11:11;39.83;37.12;49.40;;
66747;Laerm;53658;50.742;10.864;2023-03-23T15:13:50;39.64;37.32;43.04;;
66747;Laerm;53658;50.742;10.864;2023-03-23T15:16:31;39.59;37.12;41.30;;
66747;Laerm;53658;50.742;10.864;2023-03-23T15:21:30;39.61;37.32;41.81;;
66747;Laerm;53658;50.742;10.864;2023-03-23T15:23:58;39.65;37.52;42.09;;
66747;Laerm;53658;50.742;10.864;2023-03-23T15:26:42;39.61;37.32;42.58;;
66747;Laerm;53658;50.742;10.864;2023-03-23T15:29:19;39.57;36.45;41.46;;
66747;Laerm;53658;50.742;10.864;2023-03-23T15:31:53;39.57;37.32;41.75;;
66747;Laerm;53658;50.742;10.864;2023-03-23T15:37:01;39.61;37.12;42.65;;
66747;Laerm;53658;50.742;10.864;2023-03-23T15:39:28;39.55;37.32;41.89;;
66747;Laerm;53658;50.742;10.864;2023-03-23T15:41:57;39.56;36.69;41.30;;
66747;Laerm;53658;50.742;10.864;2023-03-23T15:44:27;39.57;37.32;41.96;;
66747;Laerm;53658;50.742;10.864;2023-03-23T15:47:12;39.60;37.32;42.41;;
66747;Laerm;53658;50.742;10.864;2023-03-23T15:49:39;39.56;37.32;41.22;;
66747;Laerm;53658;50.742;10.864;2023-03-23T15:52:09;39.56;37.32;41.53;;
66747;Laerm;53658;50.742;10.864;2023-03-23T15:54:38;39.94;37.32;48.16;;
66747;Laerm;53658;50.742;10.864;2023-03-23T15:57:04;39.54;37.52;42.88;;
66747;Laerm;53658;50.742;10.864;2023-03-23T15:59:30;39.53;37.32;41.22;;
66747;Laerm;53658;50.742;10.864;2023-03-23T16:01:57;39.55;37.32;42.93;;
66747;Laerm;53658;50.742;10.864;2023-03-23T16:04:23;39.49;37.32;41.46;;
66747;Laerm;53658;50.742;10.864;2023-03-23T16:06:50;39.50;37.12;41.38;;
66747;Laerm;53658;50.742;10.864;2023-03-23T16:09:20;39.55;36.45;42.76;;
66747;Laerm;53658;50.742;10.864;2023-03-23T16:11:46;39.50;37.32;41.82;;
66747;Laerm;53658;50.742;10.864;2023-03-23T16:14:12;39.45;37.12;41.22;;
66747;Laerm;53658;50.742;10.864;2023-03-23T16:16:45;39.38;36.91;41.06;;
66747;Laerm;53658;50.742;10.864;2023-03-23T16:19:13;39.52;37.17;42.88;;
66747;Laerm;53658;50.742;10.864;2023-03-23T16:21:40;39.42;36.91;41.14;;
66747;Laerm;53658;50.742;10.864;2023-03-23T16:24:07;39.39;36.45;41.61;;
66747;Laerm;53658;50.742;10.864;2023-03-23T16:26:34;39.42;37.12;41.61;;
66747;Laerm;53658;50.742;10.864;2023-03-23T16:29:00;39.40;36.91;41.46;;
66747;Laerm;53658;50.742;10.864;2023-03-23T16:31:28;39.36;36.56;41.53;;
66747;Laerm;53658;50.742;10.864;2023-03-23T16:33:54;39.35;36.20;42.58;;
66747;Laerm;53658;50.742;10.864;2023-03-23T16:36:20;39.34;36.91;50.69;;